sensor_id;sensor_type;location;lat;lon;timestamp;pressure;altitude;pressure_sealevel;temperature;humidity
72857;BME280;62742;52.136;4.500;2022-08-25T00:02:01;101808.47;;;22.38;78.76
72857;BME280;62742;52.136;4.500;2022-08-25T00:04:32;101807.75;;;22.34;79.39
72857;BME280;62742;52.136;4.500;2022-08-25T00:07:02;101809.03;;;22.26;79.78
72857;BME280;62742;52.136;4.500;2022-08-25T00:09:33;101812.09;;;22.18;79.18
72857;BME280;62742;52.136;4.500;2022-08-25T00:12:01;101807.75;;;22.15;79.40
72857;BME280;62742;52.136;4.500;2022-08-25T00:14:33;101806.88;;;22.15;79.50
72857;BME280;62742;52.136;4.500;2022-08-25T00:17:03;101798.19;;;22.29;79.38
72857;BME280;62742;52.136;4.500;2022-08-25T00:19:34;101802.88;;;22.23;79.76
72857;BME280;62742;52.136;4.500;2022-08-25T00:22:06;101799.34;;;22.23;79.77
72857;BME280;62742;52.136;4.500;2022-08-25T00:24:33;101797.19;;;22.12;79.57
72857;BME280;62742;52.136;4.500;2022-08-25T00:26:59;101789.63;;;22.20;78.94
72857;BME280;62742;52.136;4.500;2022-08-25T00:29:30;101795.09;;;22.00;79.49
72857;BME280;62742;52.136;4.500;2022-08-25T00:31:58;101792.28;;;22.03;78.89
72857;BME280;62742;52.136;4.500;2022-08-25T00:34:28;101787.00;;;22.01;79.27
72857;BME280;62742;52.136;4.500;2022-08-25T00:37:00;101790.56;;;22.02;79.75
72857;BME280;62742;52.136;4.500;2022-08-25T00:39:27;101787.81;;;22.03;79.61
72857;BME280;62742;52.136;4.500;2022-08-25T00:41:55;101792.84;;;22.10;79.66
72857;BME280;62742;52.136;4.500;2022-08-25T00:44:24;101774.88;;;21.94;80.08
72857;BME280;62742;52.136;4.500;2022-08-25T00:46:56;101784.59;;;22.14;80.22
72857;BME280;62742;52.136;4.500;2022-08-25T00:49:45;101777.44;;;22.15;79.87
72857;BME280;62742;52.136;4.500;2022-08-25T00:52:21;101780.94;;;21.98;80.46
72857;BME280;62742;52.136;4.500;2022-08-25T00:54:58;101783.00;;;22.10;79.68
72857;BME280;62742;52.136;4.500;2022-08-25T00:57:36;101782.84;;;22.13;80.12
72857;BME280;62742;52.136;4.500;2022-08-25T01:00:28;101781.31;;;21.90;80.37
72857;BME280;62742;52.136;4.500;2022-08-25T01:03:06;101776.81;;;21.91;80.91
72857;BME280;62742;52.136;4.500;2022-08-25T01:05:33;101782.03;;;21.94;80.40
72857;BME280;62742;52.136;4.500;2022-08-25T01:08:01;101780.59;;;21.87;80.72
72857;BME280;62742;52.136;4.500;2022-08-25T01:10:30;101773.44;;;21.87;79.82
72857;BME280;62742;52.136;4.500;2022-08-25T01:13:02;101773.66;;;21.82;80.31
72857;BME280;62742;52.136;4.500;2022-08-25T01:15:33;101775.66;;;21.96;80.68
72857;BME280;62742;52.136;4.500;2022-08-25T01:18:00;101768.88;;;21.89;80.36
72857;BME280;62742;52.136;4.500;2022-08-25T01:20:29;101764.03;;;21.78;80.23
72857;BME280;62742;52.136;4.500;2022-08-25T01:22:58;101759.34;;;21.83;80.79
72857;BME280;62742;52.136;4.500;2022-08-25T01:28:24;101752.56;;;21.76;79.95
72857;BME280;62742;52.136;4.500;2022-08-25T01:30:51;101751.09;;;21.88;80.54
72857;BME280;62742;52.136;4.500;2022-08-25T01:33:18;101751.53;;;21.79;80.12
72857;BME280;62742;52.136;4.500;2022-08-25T01:35:45;101761.06;;;21.84;80.42
72857;BME280;62742;52.136;4.500;2022-08-25T01:38:13;101756.94;;;21.77;80.73
72857;BME280;62742;52.136;4.500;2022-08-25T01:40:41;101754.78;;;21.85;81.01
72857;BME280;62742;52.136;4.500;2022-08-25T01:43:20;101751.25;;;21.66;80.30
72857;BME280;62742;52.136;4.500;2022-08-25T01:45:55;101747.63;;;21.48;80.33
72857;BME280;62742;52.136;4.500;2022-08-25T01:48:23;101743.66;;;21.57;81.38
72857;BME280;62742;52.136;4.500;2022-08-25T01:50:49;101746.31;;;21.57;81.41
72857;BME280;62742;52.136;4.500;2022-08-25T01:53:28;101742.00;;;21.54;80.48
72857;BME280;62742;52.136;4.500;2022-08-25T01:55:56;101745.75;;;21.50;80.94
72857;BME280;62742;52.136;4.500;2022-08-25T01:58:36;101742.53;;;21.42;80.07
72857;BME280;62742;52.136;4.500;2022-08-25T02:01:07;101744.75;;;21.53;81.47
72857;BME280;62742;52.136;4.500;2022-08-25T02:03:39;101747.75;;;21.64;81.77
72857;BME280;62742;52.136;4.500;2022-08-25T02:06:06;101743.31;;;21.64;81.49
72857;BME280;62742;52.136;4.500;2022-08-25T02:08:34;101736.19;;;21.63;80.76
72857;BME280;62742;52.136;4.500;2022-08-25T02:11:01;101740.16;;;21.74;81.28
72857;BME280;62742;52.136;4.500;2022-08-25T02:13:28;101736.78;;;21.70;82.56
72857;BME280;62742;52.136;4.500;2022-08-25T02:15:56;101732.03;;;21.58;81.63
72857;BME280;62742;52.136;4.500;2022-08-25T02:18:25;101734.56;;;21.61;82.14
72857;BME280;62742;52.136;4.500;2022-08-25T02:20:51;101732.16;;;21.55;82.96
72857;BME280;62742;52.136;4.500;2022-08-25T02:23:19;101732.72;;;21.42;82.06
72857;BME280;62742;52.136;4.500;2022-08-25T02:25:46;101739.44;;;21.32;81.93
72857;BME280;62742;52.136;4.500;2022-08-25T02:28:13;101740.47;;;21.48;83.15
72857;BME280;62742;52.136;4.500;2022-08-25T02:30:40;101733.41;;;21.47;81.67
72857;BME280;62742;52.136;4.500;2022-08-25T02:33:08;101732.13;;;21.36;82.42
72857;BME280;62742;52.136;4.500;2022-08-25T02:35:35;101727.00;;;21.31;82.51
72857;BME280;62742;52.136;4.500;2022-08-25T02:38:03;101725.31;;;21.49;82.08
72857;BME280;62742;52.136;4.500;2022-08-25T02:40:30;101728.97;;;21.46;82.27
72857;BME280;62742;52.136;4.500;2022-08-25T02:42:57;101722.75;;;21.27;82.56
72857;BME280;62742;52.136;4.500;2022-08-25T02:45:23;101722.16;;;21.20;82.27
72857;BME280;62742;52.136;4.500;2022-08-25T02:47:50;101718.97;;;21.31;82.13
72857;BME280;62742;52.136;4.500;2022-08-25T02:50:16;101717.53;;;21.24;82.78
72857;BME280;62742;52.136;4.500;2022-08-25T02:52:43;101709.56;;;21.41;81.86
72857;BME280;62742;52.136;4.500;2022-08-25T02:55:11;101705.97;;;21.42;81.36
72857;BME280;62742;52.136;4.500;2022-08-25T02:57:40;101701.97;;;21.53;81.02
72857;BME280;62742;52.136;4.500;2022-08-25T03:00:11;101706.13;;;21.39;81.04
72857;BME280;62742;52.136;4.500;2022-08-25T03:02:40;101700.56;;;21.44;81.07
72857;BME280;62742;52.136;4.500;2022-08-25T03:05:10;101700.22;;;21.52;80.70
72857;BME280;62742;52.136;4.500;2022-08-25T03:07:38;101698.22;;;21.36;81.07
72857;BME280;62742;52.136;4.500;2022-08-25T03:10:11;101692.88;;;21.36;80.76
72857;BME280;62742;52.136;4.500;2022-08-25T03:12:41;101685.00;;;21.33;80.65
72857;BME280;62742;52.136;4.500;2022-08-25T03:15:09;101686.59;;;21.37;80.01
72857;BME280;62742;52.136;4.500;2022-08-25T03:17:37;101692.38;;;21.28;80.25
72857;BME280;62742;52.136;4.500;2022-08-25T03:20:05;101696.41;;;21.18;80.71
72857;BME280;62742;52.136;4.500;2022-08-25T03:22:32;101693.97;;;21.13;80.94
72857;BME280;62742;52.136;4.500;2022-08-25T03:25:00;101685.16;;;21.30;79.86
72857;BME280;62742;52.136;4.500;2022-08-25T03:27:46;101682.31;;;21.14;80.12
72857;BME280;62742;52.136;4.500;2022-08-25T03:30:14;101677.34;;;21.06;80.48
72857;BME280;62742;52.136;4.500;2022-08-25T03:32:41;101673.91;;;21.04;80.67
72857;BME280;62742;52.136;4.500;2022-08-25T03:35:08;101669.53;;;21.21;79.68
72857;BME280;62742;52.136;4.500;2022-08-25T03:37:36;101666.81;;;21.03;80.01
72857;BME280;62742;52.136;4.500;2022-08-25T03:40:06;101663.75;;;21.11;79.86
72857;BME280;62742;52.136;4.500;2022-08-25T03:42:35;101663.75;;;21.11;79.55
72857;BME280;62742;52.136;4.500;2022-08-25T03:45:15;101653.22;;;21.08;79.45
72857;BME280;62742;52.136;4.500;2022-08-25T03:47:46;101655.00;;;20.88;79.96
72857;BME280;62742;52.136;4.500;2022-08-25T03:50:14;101646.41;;;21.01;79.35
72857;BME280;62742;52.136;4.500;2022-08-25T03:52:43;101645.41;;;20.84;79.76
72857;BME280;62742;52.136;4.500;2022-08-25T03:55:12;101638.31;;;21.02;78.31
72857;BME280;62742;52.136;4.500;2022-08-25T03:57:39;101632.06;;;21.03;78.20
72857;BME280;62742;52.136;4.500;2022-08-25T04:00:08;101635.31;;;20.91;78.27
72857;BME280;62742;52.136;4.500;2022-08-25T04:02:38;101635.72;;;20.82;78.21
72857;BME280;62742;52.136;4.500;2022-08-25T04:05:06;101645.09;;;20.71;78.58
72857;BME280;62742;52.136;4.500;2022-08-25T04:07:34;101639.97;;;20.67;78.84
72857;BME280;62742;52.136;4.500;2022-08-25T04:10:00;101632.38;;;20.77;78.05
72857;BME280;62742;52.136;4.500;2022-08-25T04:12:27;101628.47;;;20.65;78.71
72857;BME280;62742;52.136;4.500;2022-08-25T04:14:53;101626.38;;;20.71;77.85
72857;BME280;62742;52.136;4.500;2022-08-25T04:17:20;101624.75;;;20.48;78.90
72857;BME280;62742;52.136;4.500;2022-08-25T04:19:47;101630.00;;;20.50;78.50
72857;BME280;62742;52.136;4.500;2022-08-25T04:22:15;101626.81;;;20.42;78.29
72857;BME280;62742;52.136;4.500;2022-08-25T04:24:42;101631.06;;;20.25;78.88
72857;BME280;62742;52.136;4.500;2022-08-25T04:27:09;101618.13;;;20.36;78.38
72857;BME280;62742;52.136;4.500;2022-08-25T04:29:35;101614.41;;;20.20;79.18
72857;BME280;62742;52.136;4.500;2022-08-25T04:32:02;101620.16;;;20.31;78.32
72857;BME280;62742;52.136;4.500;2022-08-25T04:34:29;101621.06;;;20.10;78.06
72857;BME280;62742;52.136;4.500;2022-08-25T04:36:58;101625.91;;;20.00;77.91
72857;BME280;62742;52.136;4.500;2022-08-25T04:39:29;101627.38;;;20.09;78.07
72857;BME280;62742;52.136;4.500;2022-08-25T04:41:55;101628.81;;;19.95;78.53
72857;BME280;62742;52.136;4.500;2022-08-25T04:44:22;101634.66;;;19.83;78.39
72857;BME280;62742;52.136;4.500;2022-08-25T04:46:49;101630.31;;;19.80;78.69
72857;BME280;62742;52.136;4.500;2022-08-25T04:49:15;101638.50;;;19.76;78.45
72857;BME280;62742;52.136;4.500;2022-08-25T04:51:43;101628.94;;;19.70;78.64
72857;BME280;62742;52.136;4.500;2022-08-25T04:54:13;101630.78;;;19.68;78.13
72857;BME280;62742;52.136;4.500;2022-08-25T04:56:48;101632.72;;;19.65;79.31
72857;BME280;62742;52.136;4.500;2022-08-25T04:59:17;101632.78;;;19.63;78.80
72857;BME280;62742;52.136;4.500;2022-08-25T05:01:44;101634.50;;;19.64;78.44
72857;BME280;62742;52.136;4.500;2022-08-25T05:04:14;101636.44;;;19.60;78.57
72857;BME280;62742;52.136;4.500;2022-08-25T05:06:42;101635.50;;;19.61;78.85
72857;BME280;62742;52.136;4.500;2022-08-25T05:09:09;101634.81;;;19.56;78.51
72857;BME280;62742;52.136;4.500;2022-08-25T05:11:36;101627.97;;;19.51;78.80
72857;BME280;62742;52.136;4.500;2022-08-25T05:14:04;101638.47;;;19.54;78.17
72857;BME280;62742;52.136;4.500;2022-08-25T05:16:37;101634.03;;;19.54;78.16
72857;BME280;62742;52.136;4.500;2022-08-25T05:19:04;101644.63;;;19.56;77.74
72857;BME280;62742;52.136;4.500;2022-08-25T05:21:31;101644.31;;;19.63;77.89
72857;BME280;62742;52.136;4.500;2022-08-25T05:24:00;101645.38;;;19.59;78.62
72857;BME280;62742;52.136;4.500;2022-08-25T05:26:28;101646.19;;;19.61;78.65
72857;BME280;62742;52.136;4.500;2022-08-25T05:28:57;101653.09;;;19.66;78.20
72857;BME280;62742;52.136;4.500;2022-08-25T05:31:26;101649.53;;;19.67;78.49
72857;BME280;62742;52.136;4.500;2022-08-25T05:33:54;101643.84;;;19.76;78.65
72857;BME280;62742;52.136;4.500;2022-08-25T05:36:22;101649.16;;;19.76;78.13
72857;BME280;62742;52.136;4.500;2022-08-25T05:38:52;101645.47;;;19.80;78.72
72857;BME280;62742;52.136;4.500;2022-08-25T05:41:21;101641.34;;;19.93;78.59
72857;BME280;62742;52.136;4.500;2022-08-25T05:43:52;101643.94;;;19.95;78.10
72857;BME280;62742;52.136;4.500;2022-08-25T05:46:20;101643.75;;;19.99;77.67
72857;BME280;62742;52.136;4.500;2022-08-25T05:48:48;101647.88;;;20.07;77.63
72857;BME280;62742;52.136;4.500;2022-08-25T05:51:16;101648.63;;;20.10;78.25
72857;BME280;62742;52.136;4.500;2022-08-25T05:53:45;101653.09;;;20.30;78.02
72857;BME280;62742;52.136;4.500;2022-08-25T05:56:13;101647.56;;;20.35;78.10
72857;BME280;62742;52.136;4.500;2022-08-25T05:58:41;101648.91;;;20.45;77.62
72857;BME280;62742;52.136;4.500;2022-08-25T06:01:09;101647.38;;;20.60;76.74
72857;BME280;62742;52.136;4.500;2022-08-25T06:04:03;101645.50;;;20.62;76.63
72857;BME280;62742;52.136;4.500;2022-08-25T06:06:31;101648.97;;;20.64;77.16
72857;BME280;62742;52.136;4.500;2022-08-25T06:08:57;101640.03;;;20.65;76.37
72857;BME280;62742;52.136;4.500;2022-08-25T06:11:24;101643.19;;;20.53;77.65
72857;BME280;62742;52.136;4.500;2022-08-25T06:13:50;101641.50;;;20.52;77.09
72857;BME280;62742;52.136;4.500;2022-08-25T06:16:17;101642.03;;;20.60;77.54
72857;BME280;62742;52.136;4.500;2022-08-25T06:18:43;101645.75;;;20.56;77.22
72857;BME280;62742;52.136;4.500;2022-08-25T06:21:13;101641.75;;;20.66;74.22
72857;BME280;62742;52.136;4.500;2022-08-25T06:23:41;101630.28;;;20.64;74.87
72857;BME280;62742;52.136;4.500;2022-08-25T06:26:11;101626.91;;;20.80;75.77
72857;BME280;62742;52.136;4.500;2022-08-25T06:28:39;101624.19;;;21.00;74.67
72857;BME280;62742;52.136;4.500;2022-08-25T06:31:06;101635.56;;;21.42;72.71
72857;BME280;62742;52.136;4.500;2022-08-25T06:33:33;101626.47;;;21.82;73.02
72857;BME280;62742;52.136;4.500;2022-08-25T06:35:59;101635.06;;;22.24;71.69
72857;BME280;62742;52.136;4.500;2022-08-25T06:38:26;101626.81;;;22.29;72.31
72857;BME280;62742;52.136;4.500;2022-08-25T06:40:53;101635.81;;;22.61;72.11
72857;BME280;62742;52.136;4.500;2022-08-25T06:43:21;101637.41;;;22.65;69.42
72857;BME280;62742;52.136;4.500;2022-08-25T06:45:49;101636.28;;;22.69;71.10
72857;BME280;62742;52.136;4.500;2022-08-25T06:48:15;101646.31;;;22.66;71.06
72857;BME280;62742;52.136;4.500;2022-08-25T06:50:42;101642.53;;;22.52;70.32
72857;BME280;62742;52.136;4.500;2022-08-25T06:53:10;101633.41;;;22.56;70.49
72857;BME280;62742;52.136;4.500;2022-08-25T06:55:37;101632.97;;;22.97;67.82
72857;BME280;62742;52.136;4.500;2022-08-25T06:58:05;101630.16;;;23.32;65.79
72857;BME280;62742;52.136;4.500;2022-08-25T07:00:32;101633.25;;;23.41;65.73
72857;BME280;62742;52.136;4.500;2022-08-25T07:02:59;101634.03;;;23.43;66.15
72857;BME280;62742;52.136;4.500;2022-08-25T07:05:27;101618.38;;;23.97;65.73
72857;BME280;62742;52.136;4.500;2022-08-25T07:07:54;101622.19;;;24.52;63.25
72857;BME280;62742;52.136;4.500;2022-08-25T07:10:21;101624.03;;;24.95;62.96
72857;BME280;62742;52.136;4.500;2022-08-25T07:12:48;101625.66;;;25.12;59.75
72857;BME280;62742;52.136;4.500;2022-08-25T07:15:16;101625.81;;;25.65;59.38
72857;BME280;62742;52.136;4.500;2022-08-25T07:17:43;101614.28;;;26.03;57.99
72857;BME280;62742;52.136;4.500;2022-08-25T07:20:11;101618.81;;;26.15;57.32
72857;BME280;62742;52.136;4.500;2022-08-25T07:22:37;101611.97;;;26.24;56.97
72857;BME280;62742;52.136;4.500;2022-08-25T07:25:06;101621.13;;;26.08;57.27
72857;BME280;62742;52.136;4.500;2022-08-25T07:27:34;101620.91;;;26.24;56.83
72857;BME280;62742;52.136;4.500;2022-08-25T07:30:00;101617.66;;;26.19;54.25
72857;BME280;62742;52.136;4.500;2022-08-25T07:32:27;101615.00;;;26.71;54.20
72857;BME280;62742;52.136;4.500;2022-08-25T07:34:53;101610.06;;;27.01;52.80
72857;BME280;62742;52.136;4.500;2022-08-25T07:37:38;101617.16;;;27.15;53.22
72857;BME280;62742;52.136;4.500;2022-08-25T07:40:06;101609.56;;;26.83;54.04
72857;BME280;62742;52.136;4.500;2022-08-25T07:42:33;101625.28;;;27.39;53.56
72857;BME280;62742;52.136;4.500;2022-08-25T07:45:01;101620.69;;;27.16;50.62
72857;BME280;62742;52.136;4.500;2022-08-25T07:47:27;101618.28;;;27.61;51.65
72857;BME280;62742;52.136;4.500;2022-08-25T07:49:54;101610.75;;;28.02;49.32
72857;BME280;62742;52.136;4.500;2022-08-25T07:52:21;101605.56;;;28.10;50.82
72857;BME280;62742;52.136;4.500;2022-08-25T07:54:47;101612.09;;;28.07;50.99
72857;BME280;62742;52.136;4.500;2022-08-25T07:57:14;101610.41;;;28.17;49.55
72857;BME280;62742;52.136;4.500;2022-08-25T07:59:41;101615.41;;;28.11;51.71
72857;BME280;62742;52.136;4.500;2022-08-25T08:02:10;101608.94;;;28.13;47.87
72857;BME280;62742;52.136;4.500;2022-08-25T08:04:38;101609.16;;;28.22;49.01
72857;BME280;62742;52.136;4.500;2022-08-25T08:07:05;101617.84;;;28.61;48.77
72857;BME280;62742;52.136;4.500;2022-08-25T08:09:32;101616.84;;;28.73;46.99
72857;BME280;62742;52.136;4.500;2022-08-25T08:11:58;101613.50;;;28.47;47.82
72857;BME280;62742;52.136;4.500;2022-08-25T08:14:25;101612.66;;;28.58;48.94
72857;BME280;62742;52.136;4.500;2022-08-25T08:16:52;101616.13;;;29.16;46.31
72857;BME280;62742;52.136;4.500;2022-08-25T08:19:19;101616.34;;;29.24;45.68
72857;BME280;62742;52.136;4.500;2022-08-25T08:21:45;101612.88;;;29.11;45.37
72857;BME280;62742;52.136;4.500;2022-08-25T08:24:13;101605.75;;;29.21;44.72
72857;BME280;62742;52.136;4.500;2022-08-25T08:26:40;101612.41;;;29.17;46.72
72857;BME280;62742;52.136;4.500;2022-08-25T08:29:06;101605.91;;;29.52;45.21
72857;BME280;62742;52.136;4.500;2022-08-25T08:31:33;101610.38;;;29.74;44.82
72857;BME280;62742;52.136;4.500;2022-08-25T08:33:59;101614.25;;;29.93;44.09
72857;BME280;62742;52.136;4.500;2022-08-25T08:36:26;101616.81;;;30.15;42.68
72857;BME280;62742;52.136;4.500;2022-08-25T08:38:53;101604.88;;;30.39;43.65
72857;BME280;62742;52.136;4.500;2022-08-25T08:53:10;101609.47;;;29.85;45.26
72857;BME280;62742;52.136;4.500;2022-08-25T08:55:50;101609.72;;;29.82;45.56
72857;BME280;62742;52.136;4.500;2022-08-25T08:58:29;101616.09;;;29.92;45.81
72857;BME280;62742;52.136;4.500;2022-08-25T09:01:12;101613.44;;;29.81;47.07
72857;BME280;62742;52.136;4.500;2022-08-25T09:03:51;101608.16;;;29.68;47.90
72857;BME280;62742;52.136;4.500;2022-08-25T09:06:31;101607.72;;;29.52;47.01
72857;BME280;62742;52.136;4.500;2022-08-25T09:09:08;101602.25;;;29.74;45.38
72857;BME280;62742;52.136;4.500;2022-08-25T09:26:38;101586.00;;;30.78;43.26
72857;BME280;62742;52.136;4.500;2022-08-25T09:29:12;101589.38;;;30.61;45.46
72857;BME280;62742;52.136;4.500;2022-08-25T09:31:47;101590.28;;;31.11;40.00
72857;BME280;62742;52.136;4.500;2022-08-25T09:34:21;101584.72;;;31.23;43.08
72857;BME280;62742;52.136;4.500;2022-08-25T09:36:53;101591.22;;;31.61;39.55
72857;BME280;62742;52.136;4.500;2022-08-25T09:39:20;101594.78;;;31.61;38.44
72857;BME280;62742;52.136;4.500;2022-08-25T09:41:48;101587.28;;;31.34;42.71
72857;BME280;62742;52.136;4.500;2022-08-25T09:44:25;101584.16;;;31.29;42.07
72857;BME280;62742;52.136;4.500;2022-08-25T09:47:22;101585.03;;;31.49;42.63
72857;BME280;62742;52.136;4.500;2022-08-25T09:49:57;101584.59;;;31.83;40.49
72857;BME280;62742;52.136;4.500;2022-08-25T09:52:38;101573.72;;;32.50;38.49
72857;BME280;62742;52.136;4.500;2022-08-25T09:57:56;101579.38;;;33.12;37.03
72857;BME280;62742;52.136;4.500;2022-08-25T10:00:29;101579.97;;;33.51;34.19
72857;BME280;62742;52.136;4.500;2022-08-25T10:03:18;101578.03;;;33.80;36.38
72857;BME280;62742;52.136;4.500;2022-08-25T10:10:59;101567.38;;;34.39;31.82
72857;BME280;62742;52.136;4.500;2022-08-25T10:13:36;101563.19;;;34.61;32.54
72857;BME280;62742;52.136;4.500;2022-08-25T10:16:09;101561.75;;;34.48;33.33
72857;BME280;62742;52.136;4.500;2022-08-25T10:19:10;101556.28;;;34.75;30.92
72857;BME280;62742;52.136;4.500;2022-08-25T10:21:41;101555.59;;;34.81;29.77
72857;BME280;62742;52.136;4.500;2022-08-25T10:24:10;101548.28;;;34.47;30.47
72857;BME280;62742;52.136;4.500;2022-08-25T10:27:00;101548.53;;;34.70;31.04
72857;BME280;62742;52.136;4.500;2022-08-25T10:34:57;101550.41;;;35.29;29.79
72857;BME280;62742;52.136;4.500;2022-08-25T10:37:38;101544.94;;;35.70;30.06
72857;BME280;62742;52.136;4.500;2022-08-25T10:49:37;101531.09;;;35.22;27.79
72857;BME280;62742;52.136;4.500;2022-08-25T10:52:22;101517.78;;;34.60;29.84
72857;BME280;62742;52.136;4.500;2022-08-25T10:55:17;101514.91;;;34.70;30.56
72857;BME280;62742;52.136;4.500;2022-08-25T11:09:17;101502.25;;;36.33;28.44
72857;BME280;62742;52.136;4.500;2022-08-25T11:11:54;101507.06;;;36.62;27.57
72857;BME280;62742;52.136;4.500;2022-08-25T11:14:32;101508.09;;;36.61;25.98
72857;BME280;62742;52.136;4.500;2022-08-25T11:17:38;101502.44;;;36.63;25.90
72857;BME280;62742;52.136;4.500;2022-08-25T11:20:26;101512.19;;;36.65;28.35
72857;BME280;62742;52.136;4.500;2022-08-25T11:23:24;101500.72;;;36.30;28.05
72857;BME280;62742;52.136;4.500;2022-08-25T11:26:09;101509.72;;;36.00;28.53
72857;BME280;62742;52.136;4.500;2022-08-25T11:29:09;101507.72;;;35.77;28.42
72857;BME280;62742;52.136;4.500;2022-08-25T11:31:43;101508.38;;;35.71;27.59
72857;BME280;62742;52.136;4.500;2022-08-25T11:34:12;101509.41;;;35.78;28.00
72857;BME280;62742;52.136;4.500;2022-08-25T11:36:58;101507.50;;;35.87;29.46
72857;BME280;62742;52.136;4.500;2022-08-25T11:39:54;101502.41;;;36.31;26.91
72857;BME280;62742;52.136;4.500;2022-08-25T11:45:55;101498.38;;;36.90;25.15
72857;BME280;62742;52.136;4.500;2022-08-25T11:51:44;101496.06;;;37.02;26.18
72857;BME280;62742;52.136;4.500;2022-08-25T12:02:35;101493.50;;;37.23;24.32
72857;BME280;62742;52.136;4.500;2022-08-25T12:08:04;101494.84;;;36.81;25.70
72857;BME280;62742;52.136;4.500;2022-08-25T12:11:01;101491.78;;;36.99;23.72
72857;BME280;62742;52.136;4.500;2022-08-25T12:13:42;101482.78;;;37.14;25.42
72857;BME280;62742;52.136;4.500;2022-08-25T12:19:50;101485.47;;;36.99;24.74
72857;BME280;62742;52.136;4.500;2022-08-25T12:27:19;101483.50;;;36.84;26.95
72857;BME280;62742;52.136;4.500;2022-08-25T12:35:56;101472.88;;;36.19;29.34
72857;BME280;62742;52.136;4.500;2022-08-25T12:38:32;101479.31;;;35.78;29.28
72857;BME280;62742;52.136;4.500;2022-08-25T12:41:14;101474.91;;;35.44;30.61
72857;BME280;62742;52.136;4.500;2022-08-25T12:43:49;101483.09;;;35.36;31.26
72857;BME280;62742;52.136;4.500;2022-08-25T12:51:46;101494.38;;;34.49;34.60
72857;BME280;62742;52.136;4.500;2022-08-25T13:00:55;101491.25;;;34.78;34.46
72857;BME280;62742;52.136;4.500;2022-08-25T13:08:57;101497.66;;;34.69;35.43
72857;BME280;62742;52.136;4.500;2022-08-25T13:11:51;101499.38;;;34.70;35.05
72857;BME280;62742;52.136;4.500;2022-08-25T13:14:42;101490.06;;;34.38;36.15
72857;BME280;62742;52.136;4.500;2022-08-25T13:17:11;101482.75;;;34.39;36.64
72857;BME280;62742;52.136;4.500;2022-08-25T13:20:13;101480.34;;;34.87;36.28
72857;BME280;62742;52.136;4.500;2022-08-25T13:22:56;101473.47;;;34.74;36.74
72857;BME280;62742;52.136;4.500;2022-08-25T13:25:27;101470.94;;;34.30;38.40
72857;BME280;62742;52.136;4.500;2022-08-25T13:27:57;101472.03;;;34.62;37.75
72857;BME280;62742;52.136;4.500;2022-08-25T13:30:35;101477.03;;;34.66;37.17
72857;BME280;62742;52.136;4.500;2022-08-25T13:33:19;101467.59;;;34.53;35.66
72857;BME280;62742;52.136;4.500;2022-08-25T13:35:53;101469.06;;;34.81;36.40
72857;BME280;62742;52.136;4.500;2022-08-25T13:38:43;101469.22;;;34.96;36.83
72857;BME280;62742;52.136;4.500;2022-08-25T13:41:17;101461.38;;;35.10;35.96
72857;BME280;62742;52.136;4.500;2022-08-25T13:43:46;101466.34;;;35.14;36.91
72857;BME280;62742;52.136;4.500;2022-08-25T13:46:18;101462.59;;;35.07;36.38
72857;BME280;62742;52.136;4.500;2022-08-25T13:48:46;101466.00;;;35.17;36.73
72857;BME280;62742;52.136;4.500;2022-08-25T13:51:22;101466.53;;;35.46;36.31
72857;BME280;62742;52.136;4.500;2022-08-25T13:53:58;101455.41;;;35.06;36.02
72857;BME280;62742;52.136;4.500;2022-08-25T13:56:39;101458.81;;;35.16;36.83
72857;BME280;62742;52.136;4.500;2022-08-25T13:59:25;101465.50;;;35.06;35.16
72857;BME280;62742;52.136;4.500;2022-08-25T14:01:57;101451.31;;;34.86;36.95
72857;BME280;62742;52.136;4.500;2022-08-25T14:09:49;101453.22;;;34.34;39.03
72857;BME280;62742;52.136;4.500;2022-08-25T14:15:27;101449.97;;;34.31;39.23
72857;BME280;62742;52.136;4.500;2022-08-25T14:20:44;101449.88;;;34.65;38.56
72857;BME280;62742;52.136;4.500;2022-08-25T14:23:21;101445.47;;;34.21;37.96
72857;BME280;62742;52.136;4.500;2022-08-25T14:25:54;101444.50;;;34.31;38.69
72857;BME280;62742;52.136;4.500;2022-08-25T14:28:25;101447.25;;;34.39;38.54
72857;BME280;62742;52.136;4.500;2022-08-25T14:31:04;101443.06;;;33.84;41.09
72857;BME280;62742;52.136;4.500;2022-08-25T14:33:40;101443.59;;;33.61;41.21
72857;BME280;62742;52.136;4.500;2022-08-25T14:36:13;101448.59;;;34.00;41.57
72857;BME280;62742;52.136;4.500;2022-08-25T14:38:39;101452.84;;;34.29;41.46
72857;BME280;62742;52.136;4.500;2022-08-25T14:41:06;101457.25;;;34.22;42.38
72857;BME280;62742;52.136;4.500;2022-08-25T14:43:33;101459.97;;;33.87;42.47
72857;BME280;62742;52.136;4.500;2022-08-25T14:46:04;101462.56;;;33.97;42.57
72857;BME280;62742;52.136;4.500;2022-08-25T14:48:41;101461.47;;;33.38;43.26
72857;BME280;62742;52.136;4.500;2022-08-25T14:51:11;101463.28;;;32.19;46.48
72857;BME280;62742;52.136;4.500;2022-08-25T14:53:42;101472.16;;;32.21;46.63
72857;BME280;62742;52.136;4.500;2022-08-25T14:56:09;101466.13;;;31.80;47.36
72857;BME280;62742;52.136;4.500;2022-08-25T14:58:37;101464.31;;;31.71;47.75
72857;BME280;62742;52.136;4.500;2022-08-25T15:01:05;101476.34;;;31.59;48.56
72857;BME280;62742;52.136;4.500;2022-08-25T15:03:37;101475.50;;;31.39;48.74
72857;BME280;62742;52.136;4.500;2022-08-25T15:06:10;101476.63;;;31.07;50.04
72857;BME280;62742;52.136;4.500;2022-08-25T15:08:39;101479.22;;;31.08;49.52
72857;BME280;62742;52.136;4.500;2022-08-25T15:11:25;101481.59;;;30.32;51.59
72857;BME280;62742;52.136;4.500;2022-08-25T15:13:53;101478.97;;;29.69;53.94
72857;BME280;62742;52.136;4.500;2022-08-25T15:16:23;101475.84;;;29.94;53.22
72857;BME280;62742;52.136;4.500;2022-08-25T15:18:55;101481.13;;;29.86;53.69